sensor_id;sensor_type;location;lat;lon;timestamp;temperature;humidity
8945;DHT22;4507;40.232;29.132;2022-09-03T00:02:35;25.20;99.90
8945;DHT22;4507;40.232;29.132;2022-09-03T00:05:07;25.20;99.90
8945;DHT22;4507;40.232;29.132;2022-09-03T00:07:39;25.10;99.90
8945;DHT22;4507;40.232;29.132;2022-09-03T00:10:12;25.10;99.90
8945;DHT22;4507;40.232;29.132;2022-09-03T00:12:42;25.00;99.90
8945;DHT22;4507;40.232;29.132;2022-09-03T00:15:12;25.10;99.90
8945;DHT22;4507;40.232;29.132;2022-09-03T00:17:43;25.00;99.90
8945;DHT22;4507;40.232;29.132;2022-09-03T00:20:15;25.00;99.90
8945;DHT22;4507;40.232;29.132;2022-09-03T00:22:45;25.00;99.90
8945;DHT22;4507;40.232;29.132;2022-09-03T00:25:18;25.00;99.90
8945;DHT22;4507;40.232;29.132;2022-09-03T00:27:51;24.90;99.90
8945;DHT22;4507;40.232;29.132;2022-09-03T00:30:21;24.90;99.90
8945;DHT22;4507;40.232;29.132;2022-09-03T00:32:51;24.90;99.90
8945;DHT22;4507;40.232;29.132;2022-09-03T00:35:41;24.80;99.90
8945;DHT22;4507;40.232;29.132;2022-09-03T00:38:10;24.80;99.90
8945;DHT22;4507;40.232;29.132;2022-09-03T00:43:27;24.70;99.90
8945;DHT22;4507;40.232;29.132;2022-09-03T00:46:02;24.70;99.90
8945;DHT22;4507;40.232;29.132;2022-09-03T00:48:38;24.70;99.90
8945;DHT22;4507;40.232;29.132;2022-09-03T00:51:12;24.60;99.90
8945;DHT22;4507;40.232;29.132;2022-09-03T00:53:44;24.60;99.90
8945;DHT22;4507;40.232;29.132;2022-09-03T00:56:19;24.60;99.90
8945;DHT22;4507;40.232;29.132;2022-09-03T00:58:56;24.60;99.90
8945;DHT22;4507;40.232;29.132;2022-09-03T01:01:29;24.60;99.90
8945;DHT22;4507;40.232;29.132;2022-09-03T01:04:05;24.60;99.90
8945;DHT22;4507;40.232;29.132;2022-09-03T01:06:37;24.60;99.90
8945;DHT22;4507;40.232;29.132;2022-09-03T01:09:12;24.60;99.90
8945;DHT22;4507;40.232;29.132;2022-09-03T01:11:48;24.60;99.90
8945;DHT22;4507;40.232;29.132;2022-09-03T01:14:30;24.60;99.90
8945;DHT22;4507;40.232;29.132;2022-09-03T01:17:22;24.60;99.90
8945;DHT22;4507;40.232;29.132;2022-09-03T01:22:55;24.60;99.90
8945;DHT22;4507;40.232;29.132;2022-09-03T01:25:33;24.60;99.90
8945;DHT22;4507;40.232;29.132;2022-09-03T01:28:12;24.60;99.90
8945;DHT22;4507;40.232;29.132;2022-09-03T01:30:47;24.60;99.90
8945;DHT22;4507;40.232;29.132;2022-09-03T01:33:18;24.60;99.90
8945;DHT22;4507;40.232;29.132;2022-09-03T01:35:48;24.50;99.90
8945;DHT22;4507;40.232;29.132;2022-09-03T01:38:22;24.40;99.90
8945;DHT22;4507;40.232;29.132;2022-09-03T01:40:55;24.40;99.90
8945;DHT22;4507;40.232;29.132;2022-09-03T01:43:54;24.30;99.90
8945;DHT22;4507;40.232;29.132;2022-09-03T01:46:28;24.30;99.90
8945;DHT22;4507;40.232;29.132;2022-09-03T01:49:00;24.20;99.90
8945;DHT22;4507;40.232;29.132;2022-09-03T01:51:33;24.20;99.90
8945;DHT22;4507;40.232;29.132;2022-09-03T01:54:12;24.20;99.90
8945;DHT22;4507;40.232;29.132;2022-09-03T01:56:51;24.10;99.90
8945;DHT22;4507;40.232;29.132;2022-09-03T01:59:26;24.10;99.90
8945;DHT22;4507;40.232;29.132;2022-09-03T02:01:58;24.10;99.90
8945;DHT22;4507;40.232;29.132;2022-09-03T02:04:29;24.10;99.90
8945;DHT22;4507;40.232;29.132;2022-09-03T02:06:58;24.10;99.90
8945;DHT22;4507;40.232;29.132;2022-09-03T02:09:28;24.10;99.90
8945;DHT22;4507;40.232;29.132;2022-09-03T02:12:00;24.10;99.90
8945;DHT22;4507;40.232;29.132;2022-09-03T02:14:32;24.20;99.90
8945;DHT22;4507;40.232;29.132;2022-09-03T02:17:02;24.30;99.90
8945;DHT22;4507;40.232;29.132;2022-09-03T02:19:31;24.20;99.90
8945;DHT22;4507;40.232;29.132;2022-09-03T02:22:00;24.20;99.90
8945;DHT22;4507;40.232;29.132;2022-09-03T02:24:29;24.20;99.90
8945;DHT22;4507;40.232;29.132;2022-09-03T02:26:57;24.20;99.90
8945;DHT22;4507;40.232;29.132;2022-09-03T02:29:26;24.20;99.90
8945;DHT22;4507;40.232;29.132;2022-09-03T02:31:56;24.20;99.90
8945;DHT22;4507;40.232;29.132;2022-09-03T02:34:25;24.20;99.90
8945;DHT22;4507;40.232;29.132;2022-09-03T02:36:54;24.20;99.90
8945;DHT22;4507;40.232;29.132;2022-09-03T02:39:22;24.20;99.90
8945;DHT22;4507;40.232;29.132;2022-09-03T02:41:53;24.10;99.90
8945;DHT22;4507;40.232;29.132;2022-09-03T02:44:23;24.10;99.90
8945;DHT22;4507;40.232;29.132;2022-09-03T02:46:56;24.20;99.90
8945;DHT22;4507;40.232;29.132;2022-09-03T02:49:26;24.10;99.90
8945;DHT22;4507;40.232;29.132;2022-09-03T02:51:56;24.20;99.90
8945;DHT22;4507;40.232;29.132;2022-09-03T02:54:26;24.00;99.90
8945;DHT22;4507;40.232;29.132;2022-09-03T02:56:55;24.00;99.90
8945;DHT22;4507;40.232;29.132;2022-09-03T02:59:23;24.00;99.90
8945;DHT22;4507;40.232;29.132;2022-09-03T03:01:54;24.00;99.90
8945;DHT22;4507;40.232;29.132;2022-09-03T03:04:28;24.00;99.90
8945;DHT22;4507;40.232;29.132;2022-09-03T03:06:57;24.00;99.90
8945;DHT22;4507;40.232;29.132;2022-09-03T03:09:26;24.00;99.90
8945;DHT22;4507;40.232;29.132;2022-09-03T03:11:54;24.00;99.90
8945;DHT22;4507;40.232;29.132;2022-09-03T03:14:23;24.00;99.90
8945;DHT22;4507;40.232;29.132;2022-09-03T03:16:52;24.10;99.90
8945;DHT22;4507;40.232;29.132;2022-09-03T03:19:21;24.00;99.90
8945;DHT22;4507;40.232;29.132;2022-09-03T03:21:51;24.00;99.90
8945;DHT22;4507;40.232;29.132;2022-09-03T03:24:19;24.00;99.90
8945;DHT22;4507;40.232;29.132;2022-09-03T03:26:48;24.00;99.90
8945;DHT22;4507;40.232;29.132;2022-09-03T03:29:35;23.90;99.90
8945;DHT22;4507;40.232;29.132;2022-09-03T03:32:04;24.00;99.90
8945;DHT22;4507;40.232;29.132;2022-09-03T03:34:32;24.00;99.90
8945;DHT22;4507;40.232;29.132;2022-09-03T03:37:02;24.00;99.90
8945;DHT22;4507;40.232;29.132;2022-09-03T03:39:32;24.00;99.90
8945;DHT22;4507;40.232;29.132;2022-09-03T03:42:00;24.10;99.90
8945;DHT22;4507;40.232;29.132;2022-09-03T03:44:29;24.00;99.90
8945;DHT22;4507;40.232;29.132;2022-09-03T03:46:57;24.10;99.90
8945;DHT22;4507;40.232;29.132;2022-09-03T03:49:26;24.10;99.90
8945;DHT22;4507;40.232;29.132;2022-09-03T03:51:54;24.10;99.90
8945;DHT22;4507;40.232;29.132;2022-09-03T03:54:25;24.20;99.90
8945;DHT22;4507;40.232;29.132;2022-09-03T03:56:53;24.20;99.90
8945;DHT22;4507;40.232;29.132;2022-09-03T03:59:22;24.20;99.90
8945;DHT22;4507;40.232;29.132;2022-09-03T04:01:51;24.20;99.90
8945;DHT22;4507;40.232;29.132;2022-09-03T04:04:21;24.20;99.90
8945;DHT22;4507;40.232;29.132;2022-09-03T04:06:50;24.20;99.90
8945;DHT22;4507;40.232;29.132;2022-09-03T04:09:19;24.20;99.90
8945;DHT22;4507;40.232;29.132;2022-09-03T04:11:49;24.20;99.90
8945;DHT22;4507;40.232;29.132;2022-09-03T04:14:17;24.20;99.90
8945;DHT22;4507;40.232;29.132;2022-09-03T04:16:46;24.20;99.90
8945;DHT22;4507;40.232;29.132;2022-09-03T04:19:15;24.30;99.90
8945;DHT22;4507;40.232;29.132;2022-09-03T04:21:43;24.40;99.90
8945;DHT22;4507;40.232;29.132;2022-09-03T04:24:12;24.40;99.90
8945;DHT22;4507;40.232;29.132;2022-09-03T04:26:41;24.40;99.90
8945;DHT22;4507;40.232;29.132;2022-09-03T04:29:11;24.50;99.90
8945;DHT22;4507;40.232;29.132;2022-09-03T04:31:39;24.50;99.90
8945;DHT22;4507;40.232;29.132;2022-09-03T04:34:29;24.60;99.90
8945;DHT22;4507;40.232;29.132;2022-09-03T04:36:58;24.60;99.90
8945;DHT22;4507;40.232;29.132;2022-09-03T04:39:26;24.70;99.90
8945;DHT22;4507;40.232;29.132;2022-09-03T04:41:55;24.70;99.90
8945;DHT22;4507;40.232;29.132;2022-09-03T04:44:27;24.80;99.90
8945;DHT22;4507;40.232;29.132;2022-09-03T04:46:56;24.80;99.90
8945;DHT22;4507;40.232;29.132;2022-09-03T04:49:24;24.90;99.90
8945;DHT22;4507;40.232;29.132;2022-09-03T04:51:53;24.90;99.90
8945;DHT22;4507;40.232;29.132;2022-09-03T04:54:22;24.90;99.90
8945;DHT22;4507;40.232;29.132;2022-09-03T04:56:55;25.00;99.90
8945;DHT22;4507;40.232;29.132;2022-09-03T04:59:24;25.00;99.90
8945;DHT22;4507;40.232;29.132;2022-09-03T05:01:54;25.10;99.90
8945;DHT22;4507;40.232;29.132;2022-09-03T05:04:23;25.20;99.90
8945;DHT22;4507;40.232;29.132;2022-09-03T05:06:51;25.20;99.90
8945;DHT22;4507;40.232;29.132;2022-09-03T05:09:20;25.20;99.90
8945;DHT22;4507;40.232;29.132;2022-09-03T05:11:49;25.30;99.90
8945;DHT22;4507;40.232;29.132;2022-09-03T05:14:17;25.30;99.90
8945;DHT22;4507;40.232;29.132;2022-09-03T05:16:46;25.40;99.90
8945;DHT22;4507;40.232;29.132;2022-09-03T05:19:20;25.40;99.90
8945;DHT22;4507;40.232;29.132;2022-09-03T05:21:49;25.20;99.90
8945;DHT22;4507;40.232;29.132;2022-09-03T05:24:17;25.50;99.90
8945;DHT22;4507;40.232;29.132;2022-09-03T05:26:46;25.40;99.90
8945;DHT22;4507;40.232;29.132;2022-09-03T05:29:15;25.50;99.90
8945;DHT22;4507;40.232;29.132;2022-09-03T05:31:47;25.50;99.90
8945;DHT22;4507;40.232;29.132;2022-09-03T05:34:16;25.50;99.90
8945;DHT22;4507;40.232;29.132;2022-09-03T05:36:46;25.60;99.90
8945;DHT22;4507;40.232;29.132;2022-09-03T05:39:16;25.60;99.90
8945;DHT22;4507;40.232;29.132;2022-09-03T05:41:44;25.70;99.90
8945;DHT22;4507;40.232;29.132;2022-09-03T05:44:14;25.70;99.90
8945;DHT22;4507;40.232;29.132;2022-09-03T05:46:47;25.80;99.90
8945;DHT22;4507;40.232;29.132;2022-09-03T05:49:17;25.80;99.90
8945;DHT22;4507;40.232;29.132;2022-09-03T05:51:47;25.90;99.90
8945;DHT22;4507;40.232;29.132;2022-09-03T05:54:16;25.90;99.90
8945;DHT22;4507;40.232;29.132;2022-09-03T05:56:44;26.00;99.90
8945;DHT22;4507;40.232;29.132;2022-09-03T05:59:13;26.00;99.90
8945;DHT22;4507;40.232;29.132;2022-09-03T06:01:42;26.10;99.90
8945;DHT22;4507;40.232;29.132;2022-09-03T06:04:18;26.10;99.90
8945;DHT22;4507;40.232;29.132;2022-09-03T06:06:49;26.10;99.90
8945;DHT22;4507;40.232;29.132;2022-09-03T06:09:18;26.40;99.90
8945;DHT22;4507;40.232;29.132;2022-09-03T06:11:49;26.20;99.90
8945;DHT22;4507;40.232;29.132;2022-09-03T06:14:19;26.30;99.90
8945;DHT22;4507;40.232;29.132;2022-09-03T06:16:52;26.30;99.90
8945;DHT22;4507;40.232;29.132;2022-09-03T06:19:23;26.30;99.90
8945;DHT22;4507;40.232;29.132;2022-09-03T06:21:53;26.30;99.90
8945;DHT22;4507;40.232;29.132;2022-09-03T06:24:22;26.40;99.90
8945;DHT22;4507;40.232;29.132;2022-09-03T06:26:54;26.40;99.90
8945;DHT22;4507;40.232;29.132;2022-09-03T06:29:23;26.50;99.90
8945;DHT22;4507;40.232;29.132;2022-09-03T06:31:53;26.50;99.90
8945;DHT22;4507;40.232;29.132;2022-09-03T06:34:23;26.60;99.90
8945;DHT22;4507;40.232;29.132;2022-09-03T06:37:12;26.60;99.90
8945;DHT22;4507;40.232;29.132;2022-09-03T06:39:41;26.70;99.90
8945;DHT22;4507;40.232;29.132;2022-09-03T06:42:10;26.80;99.90
8945;DHT22;4507;40.232;29.132;2022-09-03T06:44:57;26.80;99.90
8945;DHT22;4507;40.232;29.132;2022-09-03T06:47:27;26.90;99.90
8945;DHT22;4507;40.232;29.132;2022-09-03T06:49:56;27.00;99.90
8945;DHT22;4507;40.232;29.132;2022-09-03T06:52:26;27.00;99.90
8945;DHT22;4507;40.232;29.132;2022-09-03T06:54:56;27.10;99.90
8945;DHT22;4507;40.232;29.132;2022-09-03T06:57:25;27.20;99.90
8945;DHT22;4507;40.232;29.132;2022-09-03T06:59:53;27.30;99.90
8945;DHT22;4507;40.232;29.132;2022-09-03T07:02:22;27.40;99.90
8945;DHT22;4507;40.232;29.132;2022-09-03T07:04:51;27.40;99.90
8945;DHT22;4507;40.232;29.132;2022-09-03T07:07:20;27.50;99.90
8945;DHT22;4507;40.232;29.132;2022-09-03T07:09:50;27.50;99.90
8945;DHT22;4507;40.232;29.132;2022-09-03T07:12:19;27.60;99.90
8945;DHT22;4507;40.232;29.132;2022-09-03T07:14:47;27.60;99.90
8945;DHT22;4507;40.232;29.132;2022-09-03T07:17:17;27.70;99.90
8945;DHT22;4507;40.232;29.132;2022-09-03T07:19:45;27.70;99.90
8945;DHT22;4507;40.232;29.132;2022-09-03T07:22:14;27.80;99.90
8945;DHT22;4507;40.232;29.132;2022-09-03T07:24:43;27.80;99.90
8945;DHT22;4507;40.232;29.132;2022-09-03T07:27:15;27.90;99.90
8945;DHT22;4507;40.232;29.132;2022-09-03T07:29:43;27.90;99.90
8945;DHT22;4507;40.232;29.132;2022-09-03T07:32:12;28.00;99.90
8945;DHT22;4507;40.232;29.132;2022-09-03T07:34:41;28.10;99.90
8945;DHT22;4507;40.232;29.132;2022-09-03T07:37:10;28.20;99.90
8945;DHT22;4507;40.232;29.132;2022-09-03T07:39:38;28.30;99.90
8945;DHT22;4507;40.232;29.132;2022-09-03T07:42:07;28.40;99.90
8945;DHT22;4507;40.232;29.132;2022-09-03T07:44:38;28.50;99.90
8945;DHT22;4507;40.232;29.132;2022-09-03T07:47:12;28.50;99.70
8945;DHT22;4507;40.232;29.132;2022-09-03T07:49:52;28.70;99.40
8945;DHT22;4507;40.232;29.132;2022-09-03T07:52:21;28.70;98.90
8945;DHT22;4507;40.232;29.132;2022-09-03T07:54:50;28.80;98.60
8945;DHT22;4507;40.232;29.132;2022-09-03T07:57:18;28.90;98.50
8945;DHT22;4507;40.232;29.132;2022-09-03T07:59:52;29.00;98.00
8945;DHT22;4507;40.232;29.132;2022-09-03T08:02:39;29.00;97.80
8945;DHT22;4507;40.232;29.132;2022-09-03T08:05:12;29.10;97.50
8945;DHT22;4507;40.232;29.132;2022-09-03T08:07:41;29.20;97.10
8945;DHT22;4507;40.232;29.132;2022-09-03T08:10:09;29.20;96.90
8945;DHT22;4507;40.232;29.132;2022-09-03T08:12:39;29.30;96.90
8945;DHT22;4507;40.232;29.132;2022-09-03T08:15:09;29.40;96.70
8945;DHT22;4507;40.232;29.132;2022-09-03T08:17:42;29.50;96.40
8945;DHT22;4507;40.232;29.132;2022-09-03T08:20:29;29.60;96.10
8945;DHT22;4507;40.232;29.132;2022-09-03T08:23:01;29.80;95.50
8945;DHT22;4507;40.232;29.132;2022-09-03T08:25:48;29.80;94.90
8945;DHT22;4507;40.232;29.132;2022-09-03T08:28:25;29.90;94.50
8945;DHT22;4507;40.232;29.132;2022-09-03T08:30:55;29.90;94.20
8945;DHT22;4507;40.232;29.132;2022-09-03T08:33:23;29.90;93.90
8945;DHT22;4507;40.232;29.132;2022-09-03T08:36:05;29.90;93.60
8945;DHT22;4507;40.232;29.132;2022-09-03T08:38:34;29.90;93.10
8945;DHT22;4507;40.232;29.132;2022-09-03T08:41:05;29.80;92.90
8945;DHT22;4507;40.232;29.132;2022-09-03T08:43:37;29.80;92.80
8945;DHT22;4507;40.232;29.132;2022-09-03T08:46:10;29.90;92.80
8945;DHT22;4507;40.232;29.132;2022-09-03T08:48:39;29.90;92.70
8945;DHT22;4507;40.232;29.132;2022-09-03T08:51:08;30.00;92.50
8945;DHT22;4507;40.232;29.132;2022-09-03T08:53:43;30.10;92.00
8945;DHT22;4507;40.232;29.132;2022-09-03T08:56:25;30.10;91.70
8945;DHT22;4507;40.232;29.132;2022-09-03T08:58:54;30.20;91.50
8945;DHT22;4507;40.232;29.132;2022-09-03T09:01:33;30.40;91.20
8945;DHT22;4507;40.232;29.132;2022-09-03T09:04:25;30.40;90.40
8945;DHT22;4507;40.232;29.132;2022-09-03T09:06:58;30.50;89.00
8945;DHT22;4507;40.232;29.132;2022-09-03T09:09:34;30.60;86.70
8945;DHT22;4507;40.232;29.132;2022-09-03T09:12:09;30.70;85.40
8945;DHT22;4507;40.232;29.132;2022-09-03T09:14:44;30.70;84.10
8945;DHT22;4507;40.232;29.132;2022-09-03T09:17:24;30.80;84.20
8945;DHT22;4507;40.232;29.132;2022-09-03T09:20:18;30.90;82.60
8945;DHT22;4507;40.232;29.132;2022-09-03T09:22:49;31.00;81.70
8945;DHT22;4507;40.232;29.132;2022-09-03T09:25:39;31.10;81.60
8945;DHT22;4507;40.232;29.132;2022-09-03T09:28:15;31.20;81.00
8945;DHT22;4507;40.232;29.132;2022-09-03T09:30:44;31.30;80.60
8945;DHT22;4507;40.232;29.132;2022-09-03T09:33:17;31.40;80.00
8945;DHT22;4507;40.232;29.132;2022-09-03T09:35:46;31.50;79.30
8945;DHT22;4507;40.232;29.132;2022-09-03T09:38:25;31.60;78.70
8945;DHT22;4507;40.232;29.132;2022-09-03T09:40:54;31.80;78.60
8945;DHT22;4507;40.232;29.132;2022-09-03T09:43:24;31.80;78.10
8945;DHT22;4507;40.232;29.132;2022-09-03T09:45:53;32.00;77.50
8945;DHT22;4507;40.232;29.132;2022-09-03T09:48:45;32.00;76.70
8945;DHT22;4507;40.232;29.132;2022-09-03T09:51:17;32.10;76.20
8945;DHT22;4507;40.232;29.132;2022-09-03T09:53:47;32.20;75.90
8945;DHT22;4507;40.232;29.132;2022-09-03T09:56:19;32.20;75.40
8945;DHT22;4507;40.232;29.132;2022-09-03T09:59:07;32.30;74.90
8945;DHT22;4507;40.232;29.132;2022-09-03T10:01:37;32.40;74.50
8945;DHT22;4507;40.232;29.132;2022-09-03T10:04:12;32.40;74.10
8945;DHT22;4507;40.232;29.132;2022-09-03T10:06:41;32.40;74.00
8945;DHT22;4507;40.232;29.132;2022-09-03T10:09:24;32.20;73.90
8945;DHT22;4507;40.232;29.132;2022-09-03T10:12:01;32.20;74.30
8945;DHT22;4507;40.232;29.132;2022-09-03T10:14:33;32.00;74.30
8945;DHT22;4507;40.232;29.132;2022-09-03T10:17:04;31.90;74.70
8945;DHT22;4507;40.232;29.132;2022-09-03T10:19:42;31.80;75.50
8945;DHT22;4507;40.232;29.132;2022-09-03T10:22:33;31.80;75.60
8945;DHT22;4507;40.232;29.132;2022-09-03T10:25:24;32.00;76.00
8945;DHT22;4507;40.232;29.132;2022-09-03T10:27:54;32.10;75.60
8945;DHT22;4507;40.232;29.132;2022-09-03T10:30:25;32.20;75.10
8945;DHT22;4507;40.232;29.132;2022-09-03T10:32:57;32.30;74.20
8945;DHT22;4507;40.232;29.132;2022-09-03T10:35:30;32.40;73.70
8945;DHT22;4507;40.232;29.132;2022-09-03T10:38:02;32.60;73.30
8945;DHT22;4507;40.232;29.132;2022-09-03T10:40:34;32.70;72.50
8945;DHT22;4507;40.232;29.132;2022-09-03T10:43:08;32.90;71.70
8945;DHT22;4507;40.232;29.132;2022-09-03T10:45:44;33.10;71.80
8945;DHT22;4507;40.232;29.132;2022-09-03T10:48:19;33.30;71.20
8945;DHT22;4507;40.232;29.132;2022-09-03T10:50:54;33.60;69.90
8945;DHT22;4507;40.232;29.132;2022-09-03T10:54:01;33.90;69.10
8945;DHT22;4507;40.232;29.132;2022-09-03T10:56:35;34.20;67.50
8945;DHT22;4507;40.232;29.132;2022-09-03T10:59:35;34.20;66.00
8945;DHT22;4507;40.232;29.132;2022-09-03T11:02:13;33.90;65.00
8945;DHT22;4507;40.232;29.132;2022-09-03T11:05:04;33.70;64.90
8945;DHT22;4507;40.232;29.132;2022-09-03T11:07:35;33.60;65.60
8945;DHT22;4507;40.232;29.132;2022-09-03T11:10:24;33.80;65.70
8945;DHT22;4507;40.232;29.132;2022-09-03T11:12:59;34.00;65.20
8945;DHT22;4507;40.232;29.132;2022-09-03T11:15:32;34.30;64.60
8945;DHT22;4507;40.232;29.132;2022-09-03T11:18:02;34.70;63.10
8945;DHT22;4507;40.232;29.132;2022-09-03T11:20:31;35.10;62.20
8945;DHT22;4507;40.232;29.132;2022-09-03T11:23:03;35.40;61.10
8945;DHT22;4507;40.232;29.132;2022-09-03T11:25:38;35.70;60.00
8945;DHT22;4507;40.232;29.132;2022-09-03T11:28:11;35.90;59.30
8945;DHT22;4507;40.232;29.132;2022-09-03T11:30:48;36.00;59.00
8945;DHT22;4507;40.232;29.132;2022-09-03T11:33:20;36.10;58.60
8945;DHT22;4507;40.232;29.132;2022-09-03T11:35:54;35.90;57.80
8945;DHT22;4507;40.232;29.132;2022-09-03T11:38:26;35.70;58.00
8945;DHT22;4507;40.232;29.132;2022-09-03T11:41:22;35.80;58.20
8945;DHT22;4507;40.232;29.132;2022-09-03T11:43:52;36.00;57.60
8945;DHT22;4507;40.232;29.132;2022-09-03T11:46:28;36.00;57.00
8945;DHT22;4507;40.232;29.132;2022-09-03T11:49:09;36.00;57.00
8945;DHT22;4507;40.232;29.132;2022-09-03T11:51:38;36.00;56.80
8945;DHT22;4507;40.232;29.132;2022-09-03T11:57:03;36.20;56.00
8945;DHT22;4507;40.232;29.132;2022-09-03T11:59:36;36.30;55.40
8945;DHT22;4507;40.232;29.132;2022-09-03T12:02:09;36.40;55.00
8945;DHT22;4507;40.232;29.132;2022-09-03T12:04:42;36.40;54.50
8945;DHT22;4507;40.232;29.132;2022-09-03T12:07:17;36.30;54.70
8945;DHT22;4507;40.232;29.132;2022-09-03T12:09:55;36.30;54.40
8945;DHT22;4507;40.232;29.132;2022-09-03T12:12:31;36.20;54.50
8945;DHT22;4507;40.232;29.132;2022-09-03T12:15:26;36.20;54.20
8945;DHT22;4507;40.232;29.132;2022-09-03T12:18:01;36.10;54.10
8945;DHT22;4507;40.232;29.132;2022-09-03T12:20:59;36.00;54.50
8945;DHT22;4507;40.232;29.132;2022-09-03T12:23:28;35.80;54.80
8945;DHT22;4507;40.232;29.132;2022-09-03T12:25:58;35.60;54.70
8945;DHT22;4507;40.232;29.132;2022-09-03T12:28:28;35.40;54.90
8945;DHT22;4507;40.232;29.132;2022-09-03T12:31:05;35.20;55.30
8945;DHT22;4507;40.232;29.132;2022-09-03T12:34:06;35.10;56.00
8945;DHT22;4507;40.232;29.132;2022-09-03T12:36:38;35.10;56.60
8945;DHT22;4507;40.232;29.132;2022-09-03T12:39:07;35.00;56.70
8945;DHT22;4507;40.232;29.132;2022-09-03T12:41:58;35.00;57.10
8945;DHT22;4507;40.232;29.132;2022-09-03T12:44:32;35.00;57.20
8945;DHT22;4507;40.232;29.132;2022-09-03T12:47:06;35.00;56.90
8945;DHT22;4507;40.232;29.132;2022-09-03T12:50:03;35.00;57.00
8945;DHT22;4507;40.232;29.132;2022-09-03T12:52:33;35.00;57.30
8945;DHT22;4507;40.232;29.132;2022-09-03T12:55:05;35.00;57.10
8945;DHT22;4507;40.232;29.132;2022-09-03T12:57:36;35.10;57.30
8945;DHT22;4507;40.232;29.132;2022-09-03T13:00:09;35.20;57.30
8945;DHT22;4507;40.232;29.132;2022-09-03T13:02:59;35.20;57.40
8945;DHT22;4507;40.232;29.132;2022-09-03T13:05:30;35.40;57.40
8945;DHT22;4507;40.232;29.132;2022-09-03T13:08:01;35.60;57.40
8945;DHT22;4507;40.232;29.132;2022-09-03T13:10:32;35.70;57.10
8945;DHT22;4507;40.232;29.132;2022-09-03T13:13:05;35.80;56.80
8945;DHT22;4507;40.232;29.132;2022-09-03T13:15:54;35.80;55.90
8945;DHT22;4507;40.232;29.132;2022-09-03T13:18:24;35.60;55.30
8945;DHT22;4507;40.232;29.132;2022-09-03T13:21:01;35.30;54.80
8945;DHT22;4507;40.232;29.132;2022-09-03T13:23:38;35.20;54.60
8945;DHT22;4507;40.232;29.132;2022-09-03T13:26:13;35.00;54.80
8945;DHT22;4507;40.232;29.132;2022-09-03T13:29:21;34.90;54.60
8945;DHT22;4507;40.232;29.132;2022-09-03T13:31:54;34.90;54.70
8945;DHT22;4507;40.232;29.132;2022-09-03T13:34:32;34.70;54.30
8945;DHT22;4507;40.232;29.132;2022-09-03T13:37:07;34.50;55.20
8945;DHT22;4507;40.232;29.132;2022-09-03T13:39:40;34.20;54.90
8945;DHT22;4507;40.232;29.132;2022-09-03T13:42:10;33.90;55.60
8945;DHT22;4507;40.232;29.132;2022-09-03T13:44:43;33.60;55.90
8945;DHT22;4507;40.232;29.132;2022-09-03T13:47:18;33.40;56.20
8945;DHT22;4507;40.232;29.132;2022-09-03T13:49:55;33.30;56.60
8945;DHT22;4507;40.232;29.132;2022-09-03T13:52:45;33.10;57.50
8945;DHT22;4507;40.232;29.132;2022-09-03T13:55:34;32.90;57.70
8945;DHT22;4507;40.232;29.132;2022-09-03T13:58:05;32.70;58.50
8945;DHT22;4507;40.232;29.132;2022-09-03T14:00:39;32.60;59.30
8945;DHT22;4507;40.232;29.132;2022-09-03T14:03:11;32.50;59.80
8945;DHT22;4507;40.232;29.132;2022-09-03T14:05:46;32.30;60.30
8945;DHT22;4507;40.232;29.132;2022-09-03T14:08:21;32.20;61.20
8945;DHT22;4507;40.232;29.132;2022-09-03T14:10:53;32.00;61.80
8945;DHT22;4507;40.232;29.132;2022-09-03T14:13:27;31.90;62.40
8945;DHT22;4507;40.232;29.132;2022-09-03T14:16:03;31.90;62.80
8945;DHT22;4507;40.232;29.132;2022-09-03T14:18:40;31.80;63.30
8945;DHT22;4507;40.232;29.132;2022-09-03T14:21:12;31.70;64.10
8945;DHT22;4507;40.232;29.132;2022-09-03T14:23:46;31.60;64.50
8945;DHT22;4507;40.232;29.132;2022-09-03T14:26:17;31.50;64.70
8945;DHT22;4507;40.232;29.132;2022-09-03T14:29:05;31.40;65.20
8945;DHT22;4507;40.232;29.132;2022-09-03T14:31:45;31.30;65.60
8945;DHT22;4507;40.232;29.132;2022-09-03T14:34:24;31.30;66.20
8945;DHT22;4507;40.232;29.132;2022-09-03T14:36:59;31.10;66.50
8945;DHT22;4507;40.232;29.132;2022-09-03T14:39:30;31.00;67.30
8945;DHT22;4507;40.232;29.132;2022-09-03T14:42:12;31.00;67.70
8945;DHT22;4507;40.232;29.132;2022-09-03T14:44:56;30.90;68.00
8945;DHT22;4507;40.232;29.132;2022-09-03T14:47:33;30.90;68.60
8945;DHT22;4507;40.232;29.132;2022-09-03T14:50:12;30.90;68.90
8945;DHT22;4507;40.232;29.132;2022-09-03T14:52:51;30.90;69.00
8945;DHT22;4507;40.232;29.132;2022-09-03T14:55:24;30.80;68.90
8945;DHT22;4507;40.232;29.132;2022-09-03T14:58:01;30.80;69.00
8945;DHT22;4507;40.232;29.132;2022-09-03T15:00:33;30.70;69.10
8945;DHT22;4507;40.232;29.132;2022-09-03T15:03:27;30.60;69.30
8945;DHT22;4507;40.232;29.132;2022-09-03T15:06:03;30.50;69.70
8945;DHT22;4507;40.232;29.132;2022-09-03T15:08:49;30.50;70.20
8945;DHT22;4507;40.232;29.132;2022-09-03T15:11:21;30.40;70.60
8945;DHT22;4507;40.232;29.132;2022-09-03T15:13:51;30.30;71.10
8945;DHT22;4507;40.232;29.132;2022-09-03T15:16:33;30.20;71.50
8945;DHT22;4507;40.232;29.132;2022-09-03T15:19:08;30.10;71.90
8945;DHT22;4507;40.232;29.132;2022-09-03T15:21:46;30.10;72.40
8945;DHT22;4507;40.232;29.132;2022-09-03T15:24:22;30.00;72.80
8945;DHT22;4507;40.232;29.132;2022-09-03T15:27:00;29.90;73.10
8945;DHT22;4507;40.232;29.132;2022-09-03T15:29:38;29.90;73.40
8945;DHT22;4507;40.232;29.132;2022-09-03T15:32:13;29.80;73.60
8945;DHT22;4507;40.232;29.132;2022-09-03T15:34:48;29.80;74.00
8945;DHT22;4507;40.232;29.132;2022-09-03T15:37:20;29.70;74.40
8945;DHT22;4507;40.232;29.132;2022-09-03T15:39:56;29.70;74.90
8945;DHT22;4507;40.232;29.132;2022-09-03T15:42:27;29.60;75.30
8945;DHT22;4507;40.232;29.132;2022-09-03T15:45:00;29.60;75.70
8945;DHT22;4507;40.232;29.132;2022-09-03T15:47:35;29.50;75.80
8945;DHT22;4507;40.232;29.132;2022-09-03T15:50:23;29.50;76.20
8945;DHT22;4507;40.232;29.132;2022-09-03T15:52:55;29.40;76.60
8945;DHT22;4507;40.232;29.132;2022-09-03T15:55:29;29.40;76.80
8945;DHT22;4507;40.232;29.132;2022-09-03T15:58:01;29.30;77.20
8945;DHT22;4507;40.232;29.132;2022-09-03T16:00:38;29.20;77.50
8945;DHT22;4507;40.232;29.132;2022-09-03T16:03:11;29.20;77.90
8945;DHT22;4507;40.232;29.132;2022-09-03T16:05:51;29.10;78.20
8945;DHT22;4507;40.232;29.132;2022-09-03T16:08:24;29.10;78.50
8945;DHT22;4507;40.232;29.132;2022-09-03T16:11:17;29.00;78.90
8945;DHT22;4507;40.232;29.132;2022-09-03T16:13:53;29.00;79.30
8945;DHT22;4507;40.232;29.132;2022-09-03T16:16:45;28.90;79.60
8945;DHT22;4507;40.232;29.132;2022-09-03T16:19:16;28.80;79.90
8945;DHT22;4507;40.232;29.132;2022-09-03T16:21:49;28.80;80.30
8945;DHT22;4507;40.232;29.132;2022-09-03T16:24:24;28.70;80.70
8945;DHT22;4507;40.232;29.132;2022-09-03T16:26:56;28.60;81.30
8945;DHT22;4507;40.232;29.132;2022-09-03T16:29:27;28.60;81.90
8945;DHT22;4507;40.232;29.132;2022-09-03T16:32:02;28.50;82.10
8945;DHT22;4507;40.232;29.132;2022-09-03T16:34:36;28.50;82.50
8945;DHT22;4507;40.232;29.132;2022-09-03T16:37:08;28.40;82.40